createdAt,value
2023-04-15T00:02:54.422Z,9.00
2023-04-15T00:07:11.267Z,9.45
2023-04-15T00:11:27.570Z,8.38
2023-04-15T00:15:43.814Z,8.32
2023-04-15T00:20:00.218Z,8.32
2023-04-15T00:24:16.734Z,7.80
2023-04-15T00:28:33.871Z,7.78
2023-04-15T00:32:50.231Z,7.28
2023-04-15T00:37:06.455Z,7.45
2023-04-15T00:41:23.346Z,7.03
2023-04-15T00:45:39.684Z,6.53
2023-04-15T00:49:56.244Z,6.50
2023-04-15T00:54:12.508Z,6.25
2023-04-15T00:58:29.162Z,5.87
2023-04-15T01:02:45.951Z,6.03
2023-04-15T01:07:02.836Z,5.40
2023-04-15T01:11:19.332Z,5.85
2023-04-15T01:15:36.852Z,5.78
2023-04-15T01:19:53.774Z,5.43
2023-04-15T01:24:11.462Z,5.37
2023-04-15T01:28:27.739Z,5.20
2023-04-15T01:32:43.956Z,4.82
2023-04-15T01:37:00.199Z,5.15
2023-04-15T01:41:16.535Z,5.45
2023-04-15T01:45:32.715Z,5.20
2023-04-15T01:49:49.108Z,5.47
2023-04-15T01:54:05.377Z,6.10
2023-04-15T01:58:22.730Z,5.65
2023-04-15T02:02:39.281Z,6.10
2023-04-15T02:06:55.826Z,6.15
2023-04-15T02:11:12.094Z,6.85
2023-04-15T02:15:28.396Z,5.78
2023-04-15T02:19:44.627Z,6.35
2023-04-15T02:24:00.982Z,6.30
2023-04-15T02:28:17.229Z,6.35
2023-04-15T02:32:33.579Z,6.57
2023-04-15T02:36:50.006Z,10.20
2023-04-15T02:41:06.248Z,8.95
2023-04-15T02:45:24.368Z,6.60
2023-04-15T02:49:40.665Z,5.93
2023-04-15T02:53:58.560Z,6.45
2023-04-15T02:58:14.869Z,6.10
2023-04-15T03:02:38.306Z,5.72
2023-04-15T03:06:54.670Z,5.70
2023-04-15T03:11:11.024Z,6.50
2023-04-15T03:15:27.386Z,6.30
2023-04-15T03:19:43.804Z,6.75
2023-04-15T03:24:00.131Z,5.95
2023-04-15T03:28:16.482Z,5.85
2023-04-15T03:32:32.884Z,5.40
2023-04-15T03:36:49.180Z,6.15
2023-04-15T03:41:05.769Z,6.00
2023-04-15T03:45:21.915Z,5.93
2023-04-15T03:49:38.962Z,6.03
2023-04-15T03:53:55.185Z,5.45
2023-04-15T03:58:13.177Z,6.10
2023-04-15T04:02:29.502Z,5.85
2023-04-15T04:06:45.904Z,5.45
2023-04-15T04:11:02.213Z,5.82
2023-04-15T04:15:18.532Z,5.53
2023-04-15T04:19:34.988Z,6.43
2023-04-15T04:23:51.542Z,6.20
2023-04-15T04:28:08.297Z,6.45
2023-04-15T04:32:24.824Z,6.68
2023-04-15T04:36:41.222Z,6.25
2023-04-15T04:40:57.555Z,6.25
2023-04-15T04:45:13.701Z,6.20
2023-04-15T04:49:29.988Z,6.62
2023-04-15T04:53:46.385Z,6.93
2023-04-15T04:58:03.013Z,6.55
2023-04-15T05:02:19.320Z,6.55
2023-04-15T05:06:37.034Z,5.82
2023-04-15T05:10:53.495Z,6.15
2023-04-15T05:15:10.348Z,7.18
2023-04-15T05:19:26.580Z,6.78
2023-04-15T05:23:42.735Z,7.62
2023-04-15T05:27:58.914Z,7.22
2023-04-15T05:32:15.222Z,7.35
2023-04-15T05:36:32.306Z,7.47
2023-04-15T05:40:48.554Z,8.30
2023-04-15T05:45:09.236Z,8.15
2023-04-15T05:49:25.749Z,8.13
2023-04-15T05:53:42.042Z,8.25
2023-04-15T05:57:58.318Z,9.73
2023-04-15T06:02:14.747Z,9.63
2023-04-15T06:06:32.664Z,8.95
2023-04-15T06:10:48.894Z,9.35
2023-04-15T06:15:06.925Z,9.05
2023-04-15T06:19:23.497Z,8.70
2023-04-15T06:23:41.401Z,7.72
2023-04-15T06:27:57.631Z,7.55
2023-04-15T06:32:13.866Z,8.35
2023-04-15T06:36:30.165Z,8.85
2023-04-15T06:40:46.627Z,8.60
2023-04-15T06:45:03.133Z,7.65
2023-04-15T06:49:19.373Z,7.57
2023-04-15T06:53:35.950Z,6.45
2023-04-15T06:57:52.190Z,7.15
2023-04-15T07:02:09.502Z,6.50
2023-04-15T07:06:26.226Z,7.15
2023-04-15T07:10:42.635Z,6.55
2023-04-15T07:14:58.935Z,5.65
2023-04-15T07:19:15.186Z,5.55
2023-04-15T07:23:31.664Z,5.30
2023-04-15T07:27:47.890Z,5.22
2023-04-15T07:32:04.546Z,4.87
2023-04-15T07:36:21.085Z,5.12
2023-04-15T07:40:37.512Z,4.95
2023-04-15T07:44:53.791Z,5.03
2023-04-15T07:49:10.032Z,4.47
2023-04-15T07:53:26.382Z,4.68
2023-04-15T07:57:42.635Z,4.05
2023-04-15T08:01:58.916Z,4.30
2023-04-15T08:06:16.065Z,3.62
2023-04-15T08:10:32.568Z,3.83
2023-04-15T08:14:49.058Z,4.37
2023-04-15T08:19:05.856Z,4.65
2023-04-15T08:23:22.085Z,5.97
2023-04-15T08:27:38.477Z,6.55
2023-04-15T08:31:55.472Z,6.47
2023-04-15T08:36:11.768Z,6.30
2023-04-15T08:40:33.749Z,6.32
2023-04-15T08:44:50.645Z,6.22
2023-04-15T08:49:10.135Z,5.45
2023-04-15T08:53:26.801Z,6.05
2023-04-15T08:57:43.497Z,8.23
2023-04-15T09:01:59.851Z,6.12
2023-04-15T09:06:19.325Z,4.80
2023-04-15T09:10:35.836Z,3.67
2023-04-15T09:14:52.690Z,4.12
2023-04-15T09:19:25.143Z,4.18
2023-04-15T09:23:54.543Z,4.12
2023-04-15T09:28:11.507Z,3.62
2023-04-15T09:32:27.766Z,2.90
2023-04-15T09:36:54.202Z,3.33
2023-04-15T09:41:21.075Z,2.60
2023-04-15T09:45:37.543Z,3.70
2023-04-15T09:50:00.637Z,4.03
2023-04-15T09:54:22.823Z,2.80
2023-04-15T09:58:39.206Z,2.15
2023-04-15T10:02:55.593Z,2.60
2023-04-15T10:07:13.117Z,2.60
2023-04-15T10:11:31.570Z,2.45
2023-04-15T10:15:52.221Z,3.20
2023-04-15T10:20:09.650Z,2.53
2023-04-15T10:24:26.036Z,3.40
2023-04-15T10:28:42.783Z,2.37
2023-04-15T10:32:59.821Z,2.50
2023-04-15T10:37:37.742Z,2.08
2023-04-15T10:42:14.106Z,2.30
2023-04-15T10:46:47.565Z,1.95
2023-04-15T10:51:04.201Z,2.33
2023-04-15T10:55:25.918Z,2.50
2023-04-15T11:00:00.341Z,3.28
2023-04-15T11:04:36.814Z,2.80
2023-04-15T11:09:02.788Z,2.10
2023-04-15T11:13:23.877Z,1.80
2023-04-15T11:17:40.114Z,1.60
2023-04-15T11:21:57.044Z,1.58
2023-04-15T11:26:13.444Z,2.00
2023-04-15T11:30:32.563Z,1.50
2023-04-15T11:34:49.193Z,1.30
2023-04-15T11:39:07.671Z,1.30
2023-04-15T11:43:24.577Z,1.20
2023-04-15T11:47:44.306Z,1.15
2023-04-15T11:52:01.425Z,1.00
2023-04-15T11:56:26.226Z,1.23
2023-04-15T12:00:47.800Z,1.02
2023-04-15T12:05:07.778Z,0.90
2023-04-15T12:09:24.116Z,1.15
2023-04-15T12:13:44.234Z,1.08
2023-04-15T12:18:00.530Z,1.30
2023-04-15T12:22:18.833Z,1.20
2023-04-15T12:26:57.902Z,1.02
2023-04-15T12:31:14.881Z,1.12
2023-04-15T12:35:31.110Z,1.15
2023-04-15T12:39:49.309Z,1.15
2023-04-15T12:44:06.065Z,1.40
2023-04-15T12:48:22.561Z,1.20
2023-04-15T12:52:38.796Z,1.20
2023-04-15T12:56:55.702Z,1.20
2023-04-15T13:01:12.313Z,1.35
2023-04-15T13:05:28.522Z,1.10
2023-04-15T13:09:45.082Z,1.10
2023-04-15T13:14:06.574Z,1.30
2023-04-15T13:18:24.058Z,1.00
2023-04-15T13:22:40.249Z,0.90
2023-04-15T13:26:59.332Z,1.00
2023-04-15T13:31:16.144Z,0.98
2023-04-15T13:35:34.106Z,1.00
2023-04-15T13:39:50.334Z,1.17
2023-04-15T13:44:06.696Z,1.23
2023-04-15T13:48:23.249Z,1.00
2023-04-15T13:52:40.170Z,1.20
2023-04-15T13:56:58.280Z,1.05
2023-04-15T14:01:14.567Z,1.05
2023-04-15T14:05:31.081Z,0.95
2023-04-15T14:09:48.502Z,1.50
2023-04-15T14:14:05.015Z,2.22
2023-04-15T14:18:21.569Z,1.65
2023-04-15T14:22:37.741Z,1.35
2023-04-15T14:26:54.276Z,1.30
2023-04-15T14:31:10.635Z,1.23
2023-04-15T14:35:27.573Z,1.05
2023-04-15T14:39:43.882Z,1.80
2023-04-15T14:44:00.146Z,1.60
2023-04-15T14:48:16.595Z,1.52
2023-04-15T14:52:39.200Z,1.58
2023-04-15T14:56:56.498Z,1.20
2023-04-15T15:01:12.900Z,1.20
2023-04-15T15:05:29.243Z,1.30
2023-04-15T15:09:45.668Z,1.40
2023-04-15T15:14:11.881Z,1.08
2023-04-15T15:18:28.552Z,1.30
2023-04-15T15:22:44.933Z,1.50
2023-04-15T15:27:02.253Z,1.30
2023-04-15T15:31:18.530Z,1.40
2023-04-15T15:35:34.692Z,1.20
2023-04-15T15:39:52.162Z,1.20
2023-04-15T15:44:08.353Z,1.15
2023-04-15T15:48:24.757Z,1.10
2023-04-15T15:52:41.053Z,1.40
2023-04-15T15:56:57.732Z,1.30
2023-04-15T16:01:14.121Z,1.75
2023-04-15T16:05:30.377Z,1.20
2023-04-15T16:09:46.607Z,1.08
2023-04-15T16:14:02.921Z,1.10
2023-04-15T16:18:19.378Z,0.90
2023-04-15T16:22:36.662Z,1.10
2023-04-15T16:26:52.992Z,1.40
2023-04-15T16:31:10.904Z,1.00
2023-04-15T16:35:28.618Z,1.20
2023-04-15T16:39:44.898Z,1.30
2023-04-15T16:44:02.172Z,1.20
2023-04-15T16:48:19.310Z,1.30
2023-04-15T16:52:36.047Z,1.35
2023-04-15T16:56:52.244Z,1.30
2023-04-15T17:01:08.675Z,1.40
2023-04-15T17:05:25.156Z,1.17
2023-04-15T17:09:41.700Z,1.10
2023-04-15T17:13:58.058Z,1.30
2023-04-15T17:18:14.332Z,1.27
2023-04-15T17:22:30.547Z,1.35
2023-04-15T17:26:47.407Z,1.27
2023-04-15T17:31:05.088Z,1.20
2023-04-15T17:35:21.641Z,1.40
2023-04-15T17:39:37.909Z,1.10
2023-04-15T17:43:54.126Z,1.73
2023-04-15T17:48:10.650Z,1.10
2023-04-15T17:52:27.002Z,1.05
2023-04-15T17:56:43.327Z,1.73
2023-04-15T18:00:59.652Z,1.75
2023-04-15T18:05:16.508Z,1.60
2023-04-15T18:09:32.865Z,1.50
2023-04-15T18:13:49.078Z,1.50
2023-04-15T18:18:05.471Z,1.40
2023-04-15T18:22:21.901Z,1.40
2023-04-15T18:26:38.514Z,1.42
2023-04-15T18:30:54.989Z,1.80
2023-04-15T18:35:11.581Z,2.10
2023-04-15T18:39:28.373Z,1.90
2023-04-15T18:43:44.548Z,1.70
2023-04-15T18:48:00.898Z,2.08
2023-04-15T18:52:17.106Z,1.80
2023-04-15T18:56:33.421Z,1.92
2023-04-15T19:00:49.653Z,1.80
2023-04-15T19:05:07.088Z,4.93
2023-04-15T19:09:23.347Z,4.55
2023-04-15T19:13:39.633Z,4.87
2023-04-15T19:17:55.899Z,2.50
2023-04-15T19:22:12.584Z,2.62
2023-04-15T19:26:28.936Z,2.45
2023-04-15T19:30:45.365Z,2.10
2023-04-15T19:35:01.577Z,2.00
2023-04-15T19:39:18.094Z,2.25
2023-04-15T19:43:34.287Z,2.25
2023-04-15T19:47:52.441Z,2.33
2023-04-15T19:52:08.676Z,3.08
2023-04-15T19:56:25.459Z,2.50
2023-04-15T20:00:41.687Z,2.40
2023-04-15T20:04:57.966Z,2.40
2023-04-15T20:09:14.283Z,2.40
2023-04-15T20:13:30.589Z,6.57
2023-04-15T20:17:46.823Z,3.35
2023-04-15T20:22:04.883Z,2.53
2023-04-15T20:26:22.009Z,2.53
2023-04-15T20:30:39.809Z,4.62
2023-04-15T20:34:56.158Z,5.05
2023-04-15T20:39:13.732Z,3.37
2023-04-15T20:43:29.969Z,3.53
2023-04-15T20:47:46.298Z,3.80
2023-04-15T20:52:03.462Z,2.80
2023-04-15T20:56:19.789Z,2.72
2023-04-15T21:00:36.330Z,3.95
2023-04-15T21:04:52.663Z,3.05
2023-04-15T21:09:08.869Z,3.90
2023-04-15T21:13:25.302Z,10.85
2023-04-15T21:17:42.104Z,6.87
2023-04-15T21:21:58.325Z,4.70
2023-04-15T21:26:14.568Z,4.37
2023-04-15T21:30:30.902Z,4.55
2023-04-15T21:34:47.078Z,6.28
2023-04-15T21:39:03.658Z,4.80
2023-04-15T21:43:21.913Z,4.00
2023-04-15T21:48:04.785Z,4.90
2023-04-15T21:52:14.408Z,5.50
2023-04-15T21:56:30.653Z,4.20
2023-04-15T22:00:47.156Z,3.22
2023-04-15T22:05:03.655Z,3.50
2023-04-15T22:09:19.840Z,3.28
2023-04-15T22:13:36.436Z,3.17
2023-04-15T22:17:52.814Z,3.17
2023-04-15T22:22:09.157Z,3.10
2023-04-15T22:26:25.466Z,3.37
2023-04-15T22:30:42.307Z,3.20
2023-04-15T22:34:58.595Z,3.17
2023-04-15T22:39:15.184Z,3.62
2023-04-15T22:43:31.341Z,3.53
2023-04-15T22:47:47.721Z,3.10
2023-04-15T22:52:04.115Z,3.20
2023-04-15T22:56:21.488Z,3.60
2023-04-15T23:00:37.712Z,3.37
2023-04-15T23:04:54.165Z,3.60
2023-04-15T23:09:10.993Z,3.55
2023-04-15T23:13:27.461Z,3.28
2023-04-15T23:17:43.857Z,3.35
2023-04-15T23:22:00.137Z,4.10
2023-04-15T23:26:16.406Z,4.32
2023-04-15T23:30:32.597Z,3.90
2023-04-15T23:34:48.834Z,4.80
2023-04-15T23:39:05.033Z,4.53
2023-04-15T23:43:21.215Z,4.40
2023-04-15T23:47:37.528Z,4.50
2023-04-15T23:51:53.817Z,4.72
2023-04-15T23:56:10.128Z,4.78
